Airfield :
LOGIN :

Register | Disclaimer

   EN    FR    IT 

 










Legend :    VFR   Marginal VFR   IFR   Intensive IFR   Very Intensive IFR
Visi :
Ceiling :
>= 8 km
>= 3000ft
5 to 8 km
1000 to 3000 ft
1500m to 5 km
500 to 1000 ft
800 to 1500m
200 to 500 ft
< 800m
< 200 ft
Symbols :   Thunderstorms  Fog  Heavy snow  Heavy precipitations  Wind > 20 kt
SIGMETs :     Misc.  Thunderstorms  Icing  Turbulence  Mountain Waves  Volcanic Ashes







- Airport Elevation : 200 ft


EBBL - Klein Brogel AB

CURRENT METAR :
  • 280325Z VRB01KT 9999 FEW027 SCT120 BKN230 17/17 Q0997 BLU

EXPIRED METARs :
  • 280303Z AUTO VRB01KT 6000 SCT028/// BKN170/// BKN230/// 17/17 Q0998 WHT
  • 280255Z AUTO VRB01KT 9999 SCT028/// SCT100/// BKN170/// 18/17 Q0998 BLU
  • 280225Z AUTO VRB02KT 8000 SCT033/// BKN082/// BKN100/// 18/17 Q0998 BLU
  • 280205Z AUTO VRB01KT 7000 BKN069/// BKN100/// 17/17 Q0998 WHT
  • 280155Z AUTO VRB01KT 8000 BKN069/// BKN100/// 17/17 Q0998 BLU
  • 280125Z AUTO VRB02KT 7000 SCT110/// 17/16 Q0998 WHT
  • 280109Z AUTO VRB01KT 7000 FEW080/// 17/16 Q0998 WHT
  • 280041Z AUTO VRB02KT 7000 FEW110/// 17/16 Q0999 WHT
  • 280025Z AUTO 08003KT 8000 SCT110/// 17/16 Q0999 BLU

TAF TAF EBBL
Valid from the 27 at 19:00 until the 28 at 07:00 UTC


271541Z 2719/2807 08010KT 9999 SCT035 BKN120
TEMPO 2719/2722 7000 -SHRA BKN030
BECMG 2805/2807 21010KT 9999 BKN015
No reported NOTAMs for that airfield.



MET'MAP, your aeronautical weather chart ! - Copyright ORBIFLY December 2007 - Disclaimer

ORBIFLY MET'MAP TEAM :

Programming & Development : Alexandra Zaïnal
Concept & Development : Baudouin d'Aumeries
Co-Development & Prog : Marc-Olivier Méhu
Technical & hardware support : Manuel Goepfert

Contact : metmap@orbifly.com




SOURCES & CREDITS :

   NOAA